sensor_id;sensor_type;location;lat;lon;timestamp;P1;durP1;ratioP1;P2;durP2;ratioP2
16506;SDS011;8366;51.020;7.642;2023-02-23T00:00:15;24.57;;;16.63;;
16506;SDS011;8366;51.020;7.642;2023-02-23T00:02:45;26.30;;;17.13;;
16506;SDS011;8366;51.020;7.642;2023-02-23T00:05:13;24.60;;;16.63;;
16506;SDS011;8366;51.020;7.642;2023-02-23T00:07:42;24.77;;;15.97;;
16506;SDS011;8366;51.020;7.642;2023-02-23T00:10:10;20.63;;;14.70;;
16506;SDS011;8366;51.020;7.642;2023-02-23T00:12:38;20.40;;;14.73;;
16506;SDS011;8366;51.020;7.642;2023-02-23T00:15:05;20.73;;;14.47;;
16506;SDS011;8366;51.020;7.642;2023-02-23T00:17:32;19.37;;;14.20;;
16506;SDS011;8366;51.020;7.642;2023-02-23T00:20:00;23.63;;;15.17;;
16506;SDS011;8366;51.020;7.642;2023-02-23T00:22:32;21.83;;;15.50;;
16506;SDS011;8366;51.020;7.642;2023-02-23T00:24:59;26.63;;;15.47;;
16506;SDS011;8366;51.020;7.642;2023-02-23T00:27:26;21.47;;;15.17;;
16506;SDS011;8366;51.020;7.642;2023-02-23T00:29:52;20.70;;;14.63;;
16506;SDS011;8366;51.020;7.642;2023-02-23T00:32:19;20.73;;;15.13;;
16506;SDS011;8366;51.020;7.642;2023-02-23T00:34:45;22.90;;;15.23;;
16506;SDS011;8366;51.020;7.642;2023-02-23T00:37:13;21.93;;;14.77;;
16506;SDS011;8366;51.020;7.642;2023-02-23T00:39:40;21.77;;;15.40;;
16506;SDS011;8366;51.020;7.642;2023-02-23T00:42:08;21.20;;;15.10;;
16506;SDS011;8366;51.020;7.642;2023-02-23T00:44:34;21.90;;;14.83;;
16506;SDS011;8366;51.020;7.642;2023-02-23T00:47:04;22.53;;;15.33;;
16506;SDS011;8366;51.020;7.642;2023-02-23T00:49:31;21.33;;;14.80;;
16506;SDS011;8366;51.020;7.642;2023-02-23T00:51:58;22.17;;;14.47;;
16506;SDS011;8366;51.020;7.642;2023-02-23T00:54:24;19.47;;;13.90;;
16506;SDS011;8366;51.020;7.642;2023-02-23T00:56:51;20.17;;;14.23;;
16506;SDS011;8366;51.020;7.642;2023-02-23T00:59:19;21.20;;;14.87;;
16506;SDS011;8366;51.020;7.642;2023-02-23T01:01:46;19.77;;;14.77;;
16506;SDS011;8366;51.020;7.642;2023-02-23T01:04:12;20.27;;;14.53;;
16506;SDS011;8366;51.020;7.642;2023-02-23T01:06:39;22.93;;;15.63;;
16506;SDS011;8366;51.020;7.642;2023-02-23T01:09:07;23.17;;;15.33;;
16506;SDS011;8366;51.020;7.642;2023-02-23T01:11:35;24.47;;;17.07;;
16506;SDS011;8366;51.020;7.642;2023-02-23T01:14:01;20.57;;;15.20;;
16506;SDS011;8366;51.020;7.642;2023-02-23T01:16:30;23.27;;;16.50;;
16506;SDS011;8366;51.020;7.642;2023-02-23T01:18:59;28.57;;;16.50;;
16506;SDS011;8366;51.020;7.642;2023-02-23T01:21:28;22.57;;;16.07;;
16506;SDS011;8366;51.020;7.642;2023-02-23T01:23:56;22.90;;;17.07;;
16506;SDS011;8366;51.020;7.642;2023-02-23T01:26:23;24.03;;;16.27;;
16506;SDS011;8366;51.020;7.642;2023-02-23T01:28:51;23.73;;;17.00;;
16506;SDS011;8366;51.020;7.642;2023-02-23T01:31:20;23.30;;;16.30;;
16506;SDS011;8366;51.020;7.642;2023-02-23T01:33:50;22.70;;;15.97;;
16506;SDS011;8366;51.020;7.642;2023-02-23T01:36:17;22.00;;;15.97;;
16506;SDS011;8366;51.020;7.642;2023-02-23T01:38:44;22.80;;;16.00;;
16506;SDS011;8366;51.020;7.642;2023-02-23T01:41:10;24.13;;;16.63;;
16506;SDS011;8366;51.020;7.642;2023-02-23T01:46:20;23.70;;;16.13;;
16506;SDS011;8366;51.020;7.642;2023-02-23T01:48:46;26.03;;;17.03;;
16506;SDS011;8366;51.020;7.642;2023-02-23T01:51:15;23.00;;;15.83;;
16506;SDS011;8366;51.020;7.642;2023-02-23T01:53:46;23.93;;;15.73;;
16506;SDS011;8366;51.020;7.642;2023-02-23T01:56:15;20.97;;;16.07;;
16506;SDS011;8366;51.020;7.642;2023-02-23T01:58:46;23.83;;;15.87;;
16506;SDS011;8366;51.020;7.642;2023-02-23T02:01:16;26.90;;;16.47;;
16506;SDS011;8366;51.020;7.642;2023-02-23T02:03:44;21.90;;;16.13;;
16506;SDS011;8366;51.020;7.642;2023-02-23T02:06:15;23.00;;;16.10;;
16506;SDS011;8366;51.020;7.642;2023-02-23T02:08:44;23.13;;;15.63;;
16506;SDS011;8366;51.020;7.642;2023-02-23T02:11:12;25.03;;;16.03;;
16506;SDS011;8366;51.020;7.642;2023-02-23T02:13:55;23.40;;;16.50;;
16506;SDS011;8366;51.020;7.642;2023-02-23T02:16:33;22.03;;;16.70;;
16506;SDS011;8366;51.020;7.642;2023-02-23T02:19:26;26.23;;;16.63;;
16506;SDS011;8366;51.020;7.642;2023-02-23T02:22:28;24.53;;;16.83;;
16506;SDS011;8366;51.020;7.642;2023-02-23T02:25:21;24.10;;;17.43;;
16506;SDS011;8366;51.020;7.642;2023-02-23T02:30:51;24.03;;;16.77;;
16506;SDS011;8366;51.020;7.642;2023-02-23T02:39:43;22.53;;;16.77;;
16506;SDS011;8366;51.020;7.642;2023-02-23T02:42:15;21.83;;;16.10;;
16506;SDS011;8366;51.020;7.642;2023-02-23T02:44:48;22.80;;;15.80;;
16506;SDS011;8366;51.020;7.642;2023-02-23T02:47:20;20.70;;;15.87;;
16506;SDS011;8366;51.020;7.642;2023-02-23T02:49:55;22.97;;;15.60;;
16506;SDS011;8366;51.020;7.642;2023-02-23T02:52:30;22.10;;;15.53;;
16506;SDS011;8366;51.020;7.642;2023-02-23T02:55:01;23.30;;;16.47;;
16506;SDS011;8366;51.020;7.642;2023-02-23T02:57:33;20.93;;;15.77;;
16506;SDS011;8366;51.020;7.642;2023-02-23T03:00:00;22.20;;;16.03;;
16506;SDS011;8366;51.020;7.642;2023-02-23T03:02:44;23.20;;;17.00;;
16506;SDS011;8366;51.020;7.642;2023-02-23T03:05:33;24.37;;;17.47;;
16506;SDS011;8366;51.020;7.642;2023-02-23T03:08:27;24.10;;;16.83;;
16506;SDS011;8366;51.020;7.642;2023-02-23T03:11:16;20.73;;;16.13;;
16506;SDS011;8366;51.020;7.642;2023-02-23T03:14:02;18.90;;;15.13;;
16506;SDS011;8366;51.020;7.642;2023-02-23T03:16:55;23.10;;;16.73;;
16506;SDS011;8366;51.020;7.642;2023-02-23T03:19:44;20.57;;;15.23;;
16506;SDS011;8366;51.020;7.642;2023-02-23T03:22:31;22.77;;;16.00;;
16506;SDS011;8366;51.020;7.642;2023-02-23T03:25:20;22.40;;;15.97;;
16506;SDS011;8366;51.020;7.642;2023-02-23T03:28:10;21.20;;;15.23;;
16506;SDS011;8366;51.020;7.642;2023-02-23T03:30:58;20.53;;;15.37;;
16506;SDS011;8366;51.020;7.642;2023-02-23T03:33:46;21.97;;;15.30;;
16506;SDS011;8366;51.020;7.642;2023-02-23T03:36:33;22.57;;;15.60;;
16506;SDS011;8366;51.020;7.642;2023-02-23T03:39:20;21.87;;;16.57;;
16506;SDS011;8366;51.020;7.642;2023-02-23T03:42:10;21.43;;;15.67;;
16506;SDS011;8366;51.020;7.642;2023-02-23T03:45:00;21.00;;;15.47;;
16506;SDS011;8366;51.020;7.642;2023-02-23T03:47:46;21.87;;;15.10;;
16506;SDS011;8366;51.020;7.642;2023-02-23T03:50:32;21.80;;;15.73;;
16506;SDS011;8366;51.020;7.642;2023-02-23T03:53:19;22.47;;;15.73;;
16506;SDS011;8366;51.020;7.642;2023-02-23T03:56:07;24.90;;;16.33;;
16506;SDS011;8366;51.020;7.642;2023-02-23T03:58:54;20.70;;;15.37;;
16506;SDS011;8366;51.020;7.642;2023-02-23T04:01:40;20.77;;;15.17;;
16506;SDS011;8366;51.020;7.642;2023-02-23T04:04:24;21.73;;;15.70;;
16506;SDS011;8366;51.020;7.642;2023-02-23T04:07:10;21.43;;;15.20;;
16506;SDS011;8366;51.020;7.642;2023-02-23T04:09:56;23.63;;;15.80;;
16506;SDS011;8366;51.020;7.642;2023-02-23T04:12:41;21.20;;;15.50;;
16506;SDS011;8366;51.020;7.642;2023-02-23T04:15:31;20.67;;;15.40;;
16506;SDS011;8366;51.020;7.642;2023-02-23T04:17:57;22.13;;;15.97;;
16506;SDS011;8366;51.020;7.642;2023-02-23T04:20:24;22.57;;;15.53;;
16506;SDS011;8366;51.020;7.642;2023-02-23T04:22:52;23.40;;;15.17;;
16506;SDS011;8366;51.020;7.642;2023-02-23T04:25:18;21.87;;;15.77;;
16506;SDS011;8366;51.020;7.642;2023-02-23T04:27:46;20.63;;;16.10;;
16506;SDS011;8366;51.020;7.642;2023-02-23T04:30:13;21.40;;;15.53;;
16506;SDS011;8366;51.020;7.642;2023-02-23T04:32:41;22.77;;;17.20;;
16506;SDS011;8366;51.020;7.642;2023-02-23T04:35:10;24.07;;;16.17;;
16506;SDS011;8366;51.020;7.642;2023-02-23T04:37:37;23.80;;;16.67;;
16506;SDS011;8366;51.020;7.642;2023-02-23T04:40:04;24.57;;;17.50;;
16506;SDS011;8366;51.020;7.642;2023-02-23T04:42:31;22.60;;;17.20;;
16506;SDS011;8366;51.020;7.642;2023-02-23T04:44:58;25.37;;;17.20;;
16506;SDS011;8366;51.020;7.642;2023-02-23T04:47:24;26.33;;;17.47;;
16506;SDS011;8366;51.020;7.642;2023-02-23T04:49:52;23.80;;;17.10;;
16506;SDS011;8366;51.020;7.642;2023-02-23T04:52:19;26.73;;;18.00;;
16506;SDS011;8366;51.020;7.642;2023-02-23T04:54:45;25.90;;;17.77;;
16506;SDS011;8366;51.020;7.642;2023-02-23T04:57:12;23.93;;;16.53;;
16506;SDS011;8366;51.020;7.642;2023-02-23T04:59:38;25.17;;;17.27;;
16506;SDS011;8366;51.020;7.642;2023-02-23T05:02:05;26.53;;;17.60;;
16506;SDS011;8366;51.020;7.642;2023-02-23T05:04:32;22.37;;;16.80;;
16506;SDS011;8366;51.020;7.642;2023-02-23T05:07:01;21.47;;;16.33;;
16506;SDS011;8366;51.020;7.642;2023-02-23T05:09:27;24.53;;;16.67;;
16506;SDS011;8366;51.020;7.642;2023-02-23T05:11:54;25.23;;;17.67;;
16506;SDS011;8366;51.020;7.642;2023-02-23T05:14:21;24.47;;;17.90;;
16506;SDS011;8366;51.020;7.642;2023-02-23T05:16:47;26.27;;;17.60;;
16506;SDS011;8366;51.020;7.642;2023-02-23T05:19:14;25.40;;;18.27;;
16506;SDS011;8366;51.020;7.642;2023-02-23T05:21:40;26.70;;;18.40;;
16506;SDS011;8366;51.020;7.642;2023-02-23T05:24:08;27.93;;;18.93;;
16506;SDS011;8366;51.020;7.642;2023-02-23T05:26:35;25.77;;;17.67;;
16506;SDS011;8366;51.020;7.642;2023-02-23T05:29:01;29.47;;;18.80;;
16506;SDS011;8366;51.020;7.642;2023-02-23T05:31:30;27.17;;;18.17;;
16506;SDS011;8366;51.020;7.642;2023-02-23T05:33:56;24.77;;;17.63;;
16506;SDS011;8366;51.020;7.642;2023-02-23T05:36:23;24.07;;;18.23;;
16506;SDS011;8366;51.020;7.642;2023-02-23T05:38:50;23.07;;;17.33;;
16506;SDS011;8366;51.020;7.642;2023-02-23T05:41:18;27.23;;;18.40;;
16506;SDS011;8366;51.020;7.642;2023-02-23T05:43:46;29.83;;;20.03;;
16506;SDS011;8366;51.020;7.642;2023-02-23T05:46:14;24.80;;;18.23;;
16506;SDS011;8366;51.020;7.642;2023-02-23T05:48:41;23.90;;;17.60;;
16506;SDS011;8366;51.020;7.642;2023-02-23T05:51:08;25.47;;;18.80;;
16506;SDS011;8366;51.020;7.642;2023-02-23T05:53:36;25.20;;;17.83;;
16506;SDS011;8366;51.020;7.642;2023-02-23T05:56:04;25.40;;;17.77;;
16506;SDS011;8366;51.020;7.642;2023-02-23T05:58:33;24.57;;;17.90;;
16506;SDS011;8366;51.020;7.642;2023-02-23T06:01:00;30.30;;;20.83;;
16506;SDS011;8366;51.020;7.642;2023-02-23T06:03:26;26.57;;;18.67;;
16506;SDS011;8366;51.020;7.642;2023-02-23T06:05:54;28.13;;;20.27;;
16506;SDS011;8366;51.020;7.642;2023-02-23T06:08:21;47.47;;;30.47;;
16506;SDS011;8366;51.020;7.642;2023-02-23T06:10:49;36.60;;;24.40;;
16506;SDS011;8366;51.020;7.642;2023-02-23T06:13:16;34.37;;;22.90;;
16506;SDS011;8366;51.020;7.642;2023-02-23T06:15:44;34.63;;;22.63;;
16506;SDS011;8366;51.020;7.642;2023-02-23T06:18:10;32.13;;;22.43;;
16506;SDS011;8366;51.020;7.642;2023-02-23T06:20:37;30.80;;;21.20;;
16506;SDS011;8366;51.020;7.642;2023-02-23T06:23:04;29.83;;;20.63;;
16506;SDS011;8366;51.020;7.642;2023-02-23T06:25:31;33.33;;;20.60;;
16506;SDS011;8366;51.020;7.642;2023-02-23T06:27:58;30.07;;;21.63;;
16506;SDS011;8366;51.020;7.642;2023-02-23T06:30:24;32.63;;;22.70;;
16506;SDS011;8366;51.020;7.642;2023-02-23T06:32:52;34.13;;;21.63;;
16506;SDS011;8366;51.020;7.642;2023-02-23T06:35:19;32.03;;;21.87;;
16506;SDS011;8366;51.020;7.642;2023-02-23T06:37:45;32.07;;;21.80;;
16506;SDS011;8366;51.020;7.642;2023-02-23T06:40:12;33.90;;;22.97;;
16506;SDS011;8366;51.020;7.642;2023-02-23T06:42:39;30.97;;;21.60;;
16506;SDS011;8366;51.020;7.642;2023-02-23T06:45:05;36.00;;;22.80;;
16506;SDS011;8366;51.020;7.642;2023-02-23T06:47:32;30.10;;;21.03;;
16506;SDS011;8366;51.020;7.642;2023-02-23T06:50:00;29.60;;;20.87;;
16506;SDS011;8366;51.020;7.642;2023-02-23T06:52:27;29.40;;;20.30;;
16506;SDS011;8366;51.020;7.642;2023-02-23T06:54:53;29.10;;;20.70;;
16506;SDS011;8366;51.020;7.642;2023-02-23T06:57:20;28.57;;;19.87;;
16506;SDS011;8366;51.020;7.642;2023-02-23T06:59:46;27.83;;;20.67;;
16506;SDS011;8366;51.020;7.642;2023-02-23T07:02:13;27.47;;;20.20;;
16506;SDS011;8366;51.020;7.642;2023-02-23T07:04:39;27.50;;;19.80;;
16506;SDS011;8366;51.020;7.642;2023-02-23T07:07:07;28.53;;;20.07;;
16506;SDS011;8366;51.020;7.642;2023-02-23T07:09:34;27.50;;;19.77;;
16506;SDS011;8366;51.020;7.642;2023-02-23T07:12:00;27.40;;;19.43;;
16506;SDS011;8366;51.020;7.642;2023-02-23T07:14:28;27.23;;;20.13;;
16506;SDS011;8366;51.020;7.642;2023-02-23T07:16:55;28.23;;;20.50;;
16506;SDS011;8366;51.020;7.642;2023-02-23T07:19:21;27.73;;;19.80;;
16506;SDS011;8366;51.020;7.642;2023-02-23T07:21:48;26.63;;;19.60;;
16506;SDS011;8366;51.020;7.642;2023-02-23T07:24:16;27.37;;;20.40;;
16506;SDS011;8366;51.020;7.642;2023-02-23T07:26:42;27.53;;;20.03;;
16506;SDS011;8366;51.020;7.642;2023-02-23T07:29:11;30.10;;;21.13;;
16506;SDS011;8366;51.020;7.642;2023-02-23T07:31:38;28.23;;;20.83;;
16506;SDS011;8366;51.020;7.642;2023-02-23T07:34:05;29.43;;;21.80;;
16506;SDS011;8366;51.020;7.642;2023-02-23T07:36:32;31.63;;;21.90;;
16506;SDS011;8366;51.020;7.642;2023-02-23T07:38:58;30.80;;;21.60;;
16506;SDS011;8366;51.020;7.642;2023-02-23T07:41:26;31.70;;;21.30;;
16506;SDS011;8366;51.020;7.642;2023-02-23T07:43:52;28.20;;;20.50;;
16506;SDS011;8366;51.020;7.642;2023-02-23T07:46:19;30.67;;;21.07;;
16506;SDS011;8366;51.020;7.642;2023-02-23T07:48:45;29.10;;;20.50;;
16506;SDS011;8366;51.020;7.642;2023-02-23T07:51:12;29.67;;;22.03;;
16506;SDS011;8366;51.020;7.642;2023-02-23T07:53:41;29.50;;;21.77;;
16506;SDS011;8366;51.020;7.642;2023-02-23T07:56:08;30.57;;;21.93;;
16506;SDS011;8366;51.020;7.642;2023-02-23T07:58:37;31.60;;;22.93;;
16506;SDS011;8366;51.020;7.642;2023-02-23T08:01:03;31.53;;;22.73;;
16506;SDS011;8366;51.020;7.642;2023-02-23T08:03:30;31.17;;;21.70;;
16506;SDS011;8366;51.020;7.642;2023-02-23T08:05:57;29.07;;;22.77;;
16506;SDS011;8366;51.020;7.642;2023-02-23T08:08:24;29.97;;;23.13;;
16506;SDS011;8366;51.020;7.642;2023-02-23T08:10:57;31.67;;;23.07;;
16506;SDS011;8366;51.020;7.642;2023-02-23T08:13:25;32.57;;;23.37;;
16506;SDS011;8366;51.020;7.642;2023-02-23T08:15:52;32.27;;;23.67;;
16506;SDS011;8366;51.020;7.642;2023-02-23T08:18:19;33.30;;;23.67;;
16506;SDS011;8366;51.020;7.642;2023-02-23T08:20:45;32.47;;;24.13;;
16506;SDS011;8366;51.020;7.642;2023-02-23T08:23:12;32.37;;;23.97;;
16506;SDS011;8366;51.020;7.642;2023-02-23T08:25:38;32.40;;;23.83;;
16506;SDS011;8366;51.020;7.642;2023-02-23T08:28:05;33.93;;;24.23;;
16506;SDS011;8366;51.020;7.642;2023-02-23T08:30:31;33.73;;;23.87;;
16506;SDS011;8366;51.020;7.642;2023-02-23T08:32:59;36.47;;;24.50;;
16506;SDS011;8366;51.020;7.642;2023-02-23T08:35:26;31.80;;;23.80;;
16506;SDS011;8366;51.020;7.642;2023-02-23T08:37:55;31.10;;;23.13;;
16506;SDS011;8366;51.020;7.642;2023-02-23T08:40:23;31.30;;;22.73;;
16506;SDS011;8366;51.020;7.642;2023-02-23T08:42:49;31.60;;;23.63;;
16506;SDS011;8366;51.020;7.642;2023-02-23T08:45:17;32.07;;;23.13;;
16506;SDS011;8366;51.020;7.642;2023-02-23T08:47:43;31.33;;;22.50;;
16506;SDS011;8366;51.020;7.642;2023-02-23T08:50:12;30.93;;;22.83;;
16506;SDS011;8366;51.020;7.642;2023-02-23T08:52:39;34.47;;;25.30;;
16506;SDS011;8366;51.020;7.642;2023-02-23T08:55:06;35.70;;;24.80;;
16506;SDS011;8366;51.020;7.642;2023-02-23T08:57:34;32.83;;;23.70;;
16506;SDS011;8366;51.020;7.642;2023-02-23T09:00:01;31.60;;;23.23;;
16506;SDS011;8366;51.020;7.642;2023-02-23T09:02:35;31.30;;;22.70;;
16506;SDS011;8366;51.020;7.642;2023-02-23T09:05:03;31.10;;;22.87;;
16506;SDS011;8366;51.020;7.642;2023-02-23T09:07:31;30.27;;;23.17;;
16506;SDS011;8366;51.020;7.642;2023-02-23T09:09:58;31.40;;;23.13;;
16506;SDS011;8366;51.020;7.642;2023-02-23T09:12:24;30.23;;;22.23;;
16506;SDS011;8366;51.020;7.642;2023-02-23T09:14:51;32.97;;;23.63;;
16506;SDS011;8366;51.020;7.642;2023-02-23T09:17:18;31.80;;;22.93;;
16506;SDS011;8366;51.020;7.642;2023-02-23T09:19:44;31.13;;;23.23;;
16506;SDS011;8366;51.020;7.642;2023-02-23T09:22:11;30.00;;;22.73;;
16506;SDS011;8366;51.020;7.642;2023-02-23T09:24:39;27.63;;;21.20;;
16506;SDS011;8366;51.020;7.642;2023-02-23T09:27:05;26.97;;;21.10;;
16506;SDS011;8366;51.020;7.642;2023-02-23T09:29:32;27.37;;;21.07;;
16506;SDS011;8366;51.020;7.642;2023-02-23T09:32:00;28.33;;;20.57;;
16506;SDS011;8366;51.020;7.642;2023-02-23T09:34:28;27.47;;;20.53;;
16506;SDS011;8366;51.020;7.642;2023-02-23T09:36:55;29.10;;;21.13;;
16506;SDS011;8366;51.020;7.642;2023-02-23T09:39:21;26.37;;;19.90;;
16506;SDS011;8366;51.020;7.642;2023-02-23T09:44:36;25.37;;;19.33;;
16506;SDS011;8366;51.020;7.642;2023-02-23T09:47:12;25.57;;;19.37;;
16506;SDS011;8366;51.020;7.642;2023-02-23T09:49:46;24.80;;;18.77;;
16506;SDS011;8366;51.020;7.642;2023-02-23T09:52:15;25.67;;;18.70;;
16506;SDS011;8366;51.020;7.642;2023-02-23T09:54:43;26.00;;;19.60;;
16506;SDS011;8366;51.020;7.642;2023-02-23T09:57:11;26.60;;;20.33;;
16506;SDS011;8366;51.020;7.642;2023-02-23T09:59:40;27.50;;;20.10;;
16506;SDS011;8366;51.020;7.642;2023-02-23T10:02:08;26.10;;;19.93;;
16506;SDS011;8366;51.020;7.642;2023-02-23T10:04:44;28.43;;;20.13;;
16506;SDS011;8366;51.020;7.642;2023-02-23T10:07:13;27.80;;;20.03;;
16506;SDS011;8366;51.020;7.642;2023-02-23T10:09:49;28.10;;;20.93;;
16506;SDS011;8366;51.020;7.642;2023-02-23T10:12:25;25.77;;;19.90;;
16506;SDS011;8366;51.020;7.642;2023-02-23T10:14:59;29.07;;;20.57;;
16506;SDS011;8366;51.020;7.642;2023-02-23T10:17:33;27.60;;;20.67;;
16506;SDS011;8366;51.020;7.642;2023-02-23T10:20:05;28.00;;;22.07;;
16506;SDS011;8366;51.020;7.642;2023-02-23T10:22:38;25.67;;;20.37;;
16506;SDS011;8366;51.020;7.642;2023-02-23T10:25:08;28.73;;;21.40;;
16506;SDS011;8366;51.020;7.642;2023-02-23T10:27:39;27.30;;;20.90;;
16506;SDS011;8366;51.020;7.642;2023-02-23T10:30:12;28.93;;;21.23;;
16506;SDS011;8366;51.020;7.642;2023-02-23T10:32:44;26.67;;;21.00;;
16506;SDS011;8366;51.020;7.642;2023-02-23T10:35:15;26.03;;;20.73;;
16506;SDS011;8366;51.020;7.642;2023-02-23T10:37:44;28.37;;;21.00;;
16506;SDS011;8366;51.020;7.642;2023-02-23T10:40:13;30.33;;;21.20;;
16506;SDS011;8366;51.020;7.642;2023-02-23T10:42:41;28.03;;;20.13;;
16506;SDS011;8366;51.020;7.642;2023-02-23T10:45:11;25.13;;;19.53;;
16506;SDS011;8366;51.020;7.642;2023-02-23T10:47:42;25.60;;;20.03;;
16506;SDS011;8366;51.020;7.642;2023-02-23T10:50:10;26.33;;;19.03;;
16506;SDS011;8366;51.020;7.642;2023-02-23T10:52:38;25.13;;;19.07;;
16506;SDS011;8366;51.020;7.642;2023-02-23T10:55:07;25.60;;;19.63;;
16506;SDS011;8366;51.020;7.642;2023-02-23T10:57:36;27.60;;;20.47;;
16506;SDS011;8366;51.020;7.642;2023-02-23T11:00:21;26.33;;;19.10;;
16506;SDS011;8366;51.020;7.642;2023-02-23T11:02:51;25.17;;;18.83;;
16506;SDS011;8366;51.020;7.642;2023-02-23T11:05:26;26.97;;;18.73;;
16506;SDS011;8366;51.020;7.642;2023-02-23T11:08:08;26.70;;;19.67;;
16506;SDS011;8366;51.020;7.642;2023-02-23T11:10:35;30.13;;;19.73;;
16506;SDS011;8366;51.020;7.642;2023-02-23T11:13:02;26.67;;;19.17;;
16506;SDS011;8366;51.020;7.642;2023-02-23T11:15:30;26.43;;;19.33;;
16506;SDS011;8366;51.020;7.642;2023-02-23T11:17:59;20.70;;;16.10;;
16506;SDS011;8366;51.020;7.642;2023-02-23T11:20:28;20.90;;;15.43;;
16506;SDS011;8366;51.020;7.642;2023-02-23T11:23:00;19.90;;;14.90;;
16506;SDS011;8366;51.020;7.642;2023-02-23T11:25:27;18.20;;;13.90;;
16506;SDS011;8366;51.020;7.642;2023-02-23T11:27:55;17.50;;;12.83;;
16506;SDS011;8366;51.020;7.642;2023-02-23T11:30:23;18.33;;;13.30;;
16506;SDS011;8366;51.020;7.642;2023-02-23T11:32:55;14.93;;;11.07;;
16506;SDS011;8366;51.020;7.642;2023-02-23T11:35:29;14.17;;;10.03;;
16506;SDS011;8366;51.020;7.642;2023-02-23T11:37:56;13.17;;;9.57;;
16506;SDS011;8366;51.020;7.642;2023-02-23T11:40:24;15.20;;;8.80;;
16506;SDS011;8366;51.020;7.642;2023-02-23T11:42:52;11.27;;;8.23;;
16506;SDS011;8366;51.020;7.642;2023-02-23T11:45:21;12.97;;;8.80;;
16506;SDS011;8366;51.020;7.642;2023-02-23T11:47:49;12.77;;;8.73;;
16506;SDS011;8366;51.020;7.642;2023-02-23T11:50:25;14.30;;;9.20;;
16506;SDS011;8366;51.020;7.642;2023-02-23T11:52:55;15.27;;;9.17;;
16506;SDS011;8366;51.020;7.642;2023-02-23T11:55:24;15.60;;;10.67;;
16506;SDS011;8366;51.020;7.642;2023-02-23T11:57:51;13.00;;;9.93;;
16506;SDS011;8366;51.020;7.642;2023-02-23T12:00:21;13.50;;;9.97;;
16506;SDS011;8366;51.020;7.642;2023-02-23T12:02:52;15.77;;;9.90;;
16506;SDS011;8366;51.020;7.642;2023-02-23T12:05:23;14.30;;;9.77;;
16506;SDS011;8366;51.020;7.642;2023-02-23T12:07:53;13.53;;;10.17;;
16506;SDS011;8366;51.020;7.642;2023-02-23T12:10:25;15.43;;;11.33;;
16506;SDS011;8366;51.020;7.642;2023-02-23T12:12:54;14.93;;;11.37;;
16506;SDS011;8366;51.020;7.642;2023-02-23T12:15:31;15.80;;;10.97;;
16506;SDS011;8366;51.020;7.642;2023-02-23T12:18:03;16.47;;;10.40;;
16506;SDS011;8366;51.020;7.642;2023-02-23T12:20:36;14.43;;;10.47;;
16506;SDS011;8366;51.020;7.642;2023-02-23T12:23:05;14.57;;;10.83;;
16506;SDS011;8366;51.020;7.642;2023-02-23T12:25:35;14.50;;;11.33;;
16506;SDS011;8366;51.020;7.642;2023-02-23T12:28:08;15.43;;;12.10;;
16506;SDS011;8366;51.020;7.642;2023-02-23T12:30:41;15.57;;;12.33;;
16506;SDS011;8366;51.020;7.642;2023-02-23T12:33:10;20.77;;;14.57;;
16506;SDS011;8366;51.020;7.642;2023-02-23T12:35:43;23.40;;;16.17;;
16506;SDS011;8366;51.020;7.642;2023-02-23T12:38:14;21.77;;;14.83;;
16506;SDS011;8366;51.020;7.642;2023-02-23T12:40:51;23.07;;;15.07;;
16506;SDS011;8366;51.020;7.642;2023-02-23T12:43:24;19.53;;;13.97;;
16506;SDS011;8366;51.020;7.642;2023-02-23T12:45:55;23.10;;;14.93;;
16506;SDS011;8366;51.020;7.642;2023-02-23T12:48:27;20.13;;;14.17;;
16506;SDS011;8366;51.020;7.642;2023-02-23T12:50:58;21.93;;;15.23;;
16506;SDS011;8366;51.020;7.642;2023-02-23T12:53:36;22.10;;;15.33;;
16506;SDS011;8366;51.020;7.642;2023-02-23T12:56:09;21.97;;;14.90;;
16506;SDS011;8366;51.020;7.642;2023-02-23T12:58:43;21.77;;;14.73;;
16506;SDS011;8366;51.020;7.642;2023-02-23T13:01:15;21.90;;;14.63;;
16506;SDS011;8366;51.020;7.642;2023-02-23T13:03:44;27.67;;;16.70;;
16506;SDS011;8366;51.020;7.642;2023-02-23T13:06:24;23.80;;;15.40;;
16506;SDS011;8366;51.020;7.642;2023-02-23T13:09:01;24.93;;;16.03;;
16506;SDS011;8366;51.020;7.642;2023-02-23T13:11:42;27.90;;;18.00;;
16506;SDS011;8366;51.020;7.642;2023-02-23T13:14:14;26.73;;;16.00;;
16506;SDS011;8366;51.020;7.642;2023-02-23T13:16:46;26.70;;;16.63;;
16506;SDS011;8366;51.020;7.642;2023-02-23T13:19:16;22.27;;;14.30;;
16506;SDS011;8366;51.020;7.642;2023-02-23T13:21:48;22.40;;;14.30;;
16506;SDS011;8366;51.020;7.642;2023-02-23T13:24:18;24.13;;;15.47;;
16506;SDS011;8366;51.020;7.642;2023-02-23T13:26:47;25.53;;;15.73;;
16506;SDS011;8366;51.020;7.642;2023-02-23T13:29:21;26.50;;;16.00;;
16506;SDS011;8366;51.020;7.642;2023-02-23T13:31:52;25.20;;;16.10;;
16506;SDS011;8366;51.020;7.642;2023-02-23T13:34:20;24.80;;;15.87;;
16506;SDS011;8366;51.020;7.642;2023-02-23T13:36:51;26.27;;;16.87;;
16506;SDS011;8366;51.020;7.642;2023-02-23T13:39:26;25.33;;;15.77;;
16506;SDS011;8366;51.020;7.642;2023-02-23T13:42:03;26.73;;;15.97;;
16506;SDS011;8366;51.020;7.642;2023-02-23T13:44:38;26.63;;;15.70;;
16506;SDS011;8366;51.020;7.642;2023-02-23T13:47:13;27.30;;;16.50;;
16506;SDS011;8366;51.020;7.642;2023-02-23T13:49:48;26.73;;;16.37;;
16506;SDS011;8366;51.020;7.642;2023-02-23T13:52:22;30.87;;;16.77;;
16506;SDS011;8366;51.020;7.642;2023-02-23T13:54:54;32.87;;;16.63;;
16506;SDS011;8366;51.020;7.642;2023-02-23T13:57:23;30.87;;;18.00;;
16506;SDS011;8366;51.020;7.642;2023-02-23T13:59:50;32.47;;;17.37;;
16506;SDS011;8366;51.020;7.642;2023-02-23T14:02:20;32.33;;;17.37;;
16506;SDS011;8366;51.020;7.642;2023-02-23T14:05:00;31.23;;;17.17;;
16506;SDS011;8366;51.020;7.642;2023-02-23T14:07:30;32.73;;;18.17;;
16506;SDS011;8366;51.020;7.642;2023-02-23T14:09:58;32.27;;;17.57;;
16506;SDS011;8366;51.020;7.642;2023-02-23T14:12:31;34.77;;;18.37;;
16506;SDS011;8366;51.020;7.642;2023-02-23T14:17:54;35.27;;;18.83;;
16506;SDS011;8366;51.020;7.642;2023-02-23T14:20:24;40.13;;;21.53;;
16506;SDS011;8366;51.020;7.642;2023-02-23T14:23:13;37.60;;;20.70;;
16506;SDS011;8366;51.020;7.642;2023-02-23T14:26:14;42.97;;;20.43;;
16506;SDS011;8366;51.020;7.642;2023-02-23T14:28:42;42.00;;;20.27;;
16506;SDS011;8366;51.020;7.642;2023-02-23T14:31:20;50.23;;;22.43;;
16506;SDS011;8366;51.020;7.642;2023-02-23T14:33:50;45.10;;;21.60;;
16506;SDS011;8366;51.020;7.642;2023-02-23T14:36:32;44.43;;;22.20;;
16506;SDS011;8366;51.020;7.642;2023-02-23T14:39:04;44.00;;;22.27;;
16506;SDS011;8366;51.020;7.642;2023-02-23T14:41:34;49.17;;;23.13;;
16506;SDS011;8366;51.020;7.642;2023-02-23T14:44:05;46.27;;;23.13;;
16506;SDS011;8366;51.020;7.642;2023-02-23T14:46:31;49.47;;;24.43;;
16506;SDS011;8366;51.020;7.642;2023-02-23T14:49:00;45.33;;;23.13;;
16506;SDS011;8366;51.020;7.642;2023-02-23T14:51:32;46.33;;;23.23;;
16506;SDS011;8366;51.020;7.642;2023-02-23T14:54:11;48.47;;;22.53;;
16506;SDS011;8366;51.020;7.642;2023-02-23T14:56:46;48.40;;;23.03;;
16506;SDS011;8366;51.020;7.642;2023-02-23T14:59:16;49.03;;;22.50;;
16506;SDS011;8366;51.020;7.642;2023-02-23T15:01:45;51.80;;;23.57;;
16506;SDS011;8366;51.020;7.642;2023-02-23T15:04:12;52.37;;;24.43;;
16506;SDS011;8366;51.020;7.642;2023-02-23T15:06:41;49.63;;;24.53;;
16506;SDS011;8366;51.020;7.642;2023-02-23T15:09:13;49.33;;;24.67;;
16506;SDS011;8366;51.020;7.642;2023-02-23T15:11:42;45.87;;;23.03;;
16506;SDS011;8366;51.020;7.642;2023-02-23T15:14:10;47.40;;;23.70;;